createdAt,value
2022-10-21T00:00:07.206Z,52.21
2022-10-21T00:02:50.425Z,52.16
2022-10-21T00:05:32.835Z,52.05
2022-10-21T00:08:21.076Z,51.10
2022-10-21T00:11:00.732Z,50.92
2022-10-21T00:13:35.457Z,51.42
2022-10-21T00:16:15.254Z,50.86
2022-10-21T00:18:53.920Z,51.15
2022-10-21T00:21:27.535Z,51.25
2022-10-21T00:24:00.107Z,50.64
2022-10-21T00:26:37.688Z,51.08
2022-10-21T00:29:07.034Z,51.83
2022-10-21T00:31:35.346Z,51.22
2022-10-21T00:34:09.384Z,51.31
2022-10-21T00:36:37.301Z,51.04
2022-10-21T00:39:09.199Z,51.35
2022-10-21T00:41:41.941Z,50.28
2022-10-21T00:44:19.679Z,50.72
2022-10-21T00:46:59.650Z,50.54
2022-10-21T00:49:47.317Z,50.79
2022-10-21T00:52:32.027Z,50.46
2022-10-21T00:55:09.365Z,50.34
2022-10-21T00:57:38.132Z,50.30
2022-10-21T01:00:13.192Z,50.31
2022-10-21T01:02:50.840Z,50.43
2022-10-21T01:05:24.826Z,50.07
2022-10-21T01:07:55.530Z,49.96
2022-10-21T01:10:28.023Z,50.42
2022-10-21T01:13:13.735Z,50.11
2022-10-21T01:16:08.075Z,50.06
2022-10-21T01:19:07.635Z,50.16
2022-10-21T01:22:24.861Z,49.54
2022-10-21T01:25:38.983Z,49.67
2022-10-21T01:31:51.595Z,49.79
2022-10-21T01:34:47.205Z,49.63
2022-10-21T01:37:30.450Z,49.52
2022-10-21T01:40:27.851Z,49.61
2022-10-21T01:43:13.227Z,49.79
2022-10-21T01:45:55.420Z,49.53
2022-10-21T01:48:32.403Z,49.35
2022-10-21T01:51:04.727Z,49.87
2022-10-21T01:53:41.377Z,49.23
2022-10-21T01:56:14.890Z,49.27
2022-10-21T01:58:43.677Z,49.38
2022-10-21T02:01:13.310Z,50.38
2022-10-21T02:03:44.839Z,50.36
2022-10-21T02:06:15.843Z,50.94
2022-10-21T02:08:44.577Z,50.24
2022-10-21T02:11:13.637Z,50.70
2022-10-21T02:14:08.495Z,50.63
2022-10-21T02:16:42.892Z,50.65
2022-10-21T02:19:21.491Z,51.33
2022-10-21T02:21:52.740Z,51.24
2022-10-21T02:24:45.766Z,51.52
2022-10-21T02:27:16.951Z,51.40
2022-10-21T02:29:47.813Z,51.78
2022-10-21T02:32:32.953Z,51.41
2022-10-21T02:35:25.132Z,51.24
2022-10-21T02:38:20.860Z,52.21
2022-10-21T02:40:54.258Z,52.00
2022-10-21T02:43:39.273Z,51.41
2022-10-21T02:46:10.673Z,51.57
2022-10-21T02:48:40.695Z,51.83
2022-10-21T02:51:12.198Z,51.50
2022-10-21T02:53:46.775Z,51.49
2022-10-21T02:56:16.681Z,51.89
2022-10-21T02:58:46.501Z,51.76
2022-10-21T03:01:19.780Z,51.55
2022-10-21T03:03:48.636Z,51.75
2022-10-21T03:06:20.029Z,51.85
2022-10-21T03:08:51.716Z,51.83
2022-10-21T03:11:19.964Z,51.70
2022-10-21T03:13:48.960Z,52.14
2022-10-21T03:16:22.562Z,51.71
2022-10-21T03:18:58.924Z,51.99
2022-10-21T03:21:30.214Z,51.99
2022-10-21T03:23:58.559Z,52.08
2022-10-21T03:26:26.911Z,51.73
2022-10-21T03:28:55.309Z,51.65
2022-10-21T03:31:25.779Z,51.49
2022-10-21T03:33:54.977Z,51.50
2022-10-21T03:36:23.658Z,51.23
2022-10-21T03:38:52.249Z,51.41
2022-10-21T03:41:23.756Z,51.34
2022-10-21T03:43:58.015Z,51.51
2022-10-21T03:46:31.397Z,51.19
2022-10-21T03:49:09.045Z,51.15
2022-10-21T03:51:46.593Z,51.58
2022-10-21T03:54:31.845Z,51.71
2022-10-21T03:56:59.533Z,51.91
2022-10-21T03:59:27.210Z,51.65
2022-10-21T04:01:55.287Z,51.73
2022-10-21T04:04:25.966Z,51.51
2022-10-21T04:06:53.863Z,51.79
2022-10-21T04:09:21.581Z,51.93
2022-10-21T04:11:49.403Z,51.73
2022-10-21T04:14:20.856Z,52.13
2022-10-21T04:17:06.468Z,51.98
2022-10-21T04:19:37.422Z,51.94
2022-10-21T04:22:05.748Z,52.06
2022-10-21T04:24:36.837Z,51.75
2022-10-21T04:27:05.064Z,52.04
2022-10-21T04:29:32.943Z,51.74
2022-10-21T04:32:04.237Z,52.01
2022-10-21T04:34:32.299Z,51.88
2022-10-21T04:37:02.638Z,51.55
2022-10-21T04:39:33.053Z,51.83
2022-10-21T04:42:01.474Z,51.81
2022-10-21T04:44:30.979Z,52.14
2022-10-21T04:46:59.402Z,51.48
2022-10-21T04:49:27.485Z,51.84
2022-10-21T04:51:58.270Z,51.72
2022-10-21T04:54:26.603Z,51.73
2022-10-21T04:56:54.410Z,51.39
2022-10-21T04:59:32.104Z,51.71
2022-10-21T05:02:03.148Z,51.07
2022-10-21T05:04:31.364Z,51.34
2022-10-21T05:07:06.144Z,51.26
2022-10-21T05:09:49.320Z,50.64
2022-10-21T05:12:22.840Z,51.08
2022-10-21T05:14:53.309Z,50.79
2022-10-21T05:17:27.251Z,51.06
2022-10-21T05:19:56.044Z,50.59
2022-10-21T05:22:24.009Z,50.57
2022-10-21T05:24:57.007Z,50.71
2022-10-21T05:27:25.636Z,50.26
2022-10-21T05:30:02.218Z,50.41
2022-10-21T05:32:42.815Z,50.89
2022-10-21T05:35:13.618Z,50.78
2022-10-21T05:37:42.950Z,51.07
2022-10-21T05:40:11.496Z,50.71
2022-10-21T05:42:42.380Z,50.88
2022-10-21T05:45:19.006Z,50.80
2022-10-21T05:47:57.633Z,52.26
2022-10-21T05:50:26.009Z,52.01
2022-10-21T05:53:00.781Z,52.09
2022-10-21T05:55:33.968Z,51.39
2022-10-21T05:58:04.134Z,51.42
2022-10-21T06:00:40.456Z,51.62
2022-10-21T06:03:08.703Z,51.97
2022-10-21T06:05:39.420Z,51.68
2022-10-21T06:08:07.476Z,51.78
2022-10-21T06:10:36.736Z,51.77
2022-10-21T06:13:06.958Z,51.86
2022-10-21T06:15:37.447Z,51.44
2022-10-21T06:18:07.462Z,51.20
2022-10-21T06:20:38.335Z,51.54
2022-10-21T06:23:07.200Z,51.27
2022-10-21T06:25:34.787Z,50.93
2022-10-21T06:28:10.548Z,50.59
2022-10-21T06:30:41.643Z,50.69
2022-10-21T06:33:09.386Z,50.68
2022-10-21T06:35:40.555Z,50.22
2022-10-21T06:38:09.315Z,50.30
2022-10-21T06:40:44.713Z,50.54
2022-10-21T06:43:12.860Z,50.45
2022-10-21T06:45:40.707Z,50.47
2022-10-21T06:48:11.431Z,50.75
2022-10-21T06:50:42.263Z,50.71
2022-10-21T06:53:12.143Z,50.36
2022-10-21T06:55:45.845Z,50.10
2022-10-21T06:58:14.134Z,49.88
2022-10-21T07:00:44.420Z,50.26
2022-10-21T07:03:15.933Z,49.87
2022-10-21T07:05:47.365Z,49.82
2022-10-21T07:08:22.345Z,49.74
2022-10-21T07:11:00.223Z,50.37
2022-10-21T07:13:37.206Z,50.28
2022-10-21T07:16:17.564Z,50.16
2022-10-21T07:18:47.992Z,50.23
2022-10-21T07:21:21.595Z,50.18
2022-10-21T07:23:57.928Z,50.04
2022-10-21T07:26:31.507Z,50.13
2022-10-21T07:29:07.170Z,50.35
2022-10-21T07:31:44.372Z,49.79
2022-10-21T07:34:26.125Z,49.99
2022-10-21T07:36:57.829Z,49.70
2022-10-21T07:39:29.650Z,48.91
2022-10-21T07:41:59.875Z,48.87
2022-10-21T07:44:30.815Z,48.42
2022-10-21T07:47:05.989Z,48.67
2022-10-21T07:49:41.954Z,48.55
2022-10-21T07:52:10.833Z,48.27
2022-10-21T07:54:40.556Z,48.89
2022-10-21T07:57:08.802Z,49.38
2022-10-21T07:59:37.978Z,49.66
2022-10-21T08:02:19.515Z,50.31
2022-10-21T08:04:50.554Z,50.82
2022-10-21T08:07:19.477Z,51.77
2022-10-21T08:09:51.804Z,51.44
2022-10-21T08:12:20.472Z,51.48
2022-10-21T08:14:53.993Z,51.97
2022-10-21T08:17:22.699Z,51.28
2022-10-21T08:19:51.710Z,51.59
2022-10-21T08:22:22.270Z,50.81
2022-10-21T08:24:53.047Z,52.31
2022-10-21T08:27:21.492Z,51.66
2022-10-21T08:29:52.119Z,51.79
2022-10-21T08:32:22.466Z,50.73
2022-10-21T08:34:51.114Z,51.11
2022-10-21T08:37:24.888Z,51.00
2022-10-21T08:39:56.959Z,51.82
2022-10-21T08:42:26.700Z,50.90
2022-10-21T08:45:00.599Z,51.77
2022-10-21T08:47:53.052Z,50.32
2022-10-21T08:50:24.633Z,50.01
2022-10-21T08:53:40.846Z,49.71
2022-10-21T08:56:47.021Z,49.53
2022-10-21T09:03:27.326Z,49.32
2022-10-21T09:25:32.066Z,47.59
2022-10-21T09:28:09.442Z,48.65
2022-10-21T09:31:02.228Z,47.86
2022-10-21T09:33:47.519Z,47.76
2022-10-21T09:36:31.125Z,47.14
2022-10-21T09:39:08.642Z,47.35
2022-10-21T09:41:48.538Z,47.49
2022-10-21T09:44:23.135Z,48.61
2022-10-21T09:46:53.702Z,48.16
2022-10-21T09:50:06.269Z,47.35
2022-10-21T09:52:24.099Z,47.81
2022-10-21T09:54:52.123Z,47.61
2022-10-21T09:58:03.813Z,47.98
2022-10-21T10:00:51.027Z,47.23
2022-10-21T10:03:43.536Z,46.09
2022-10-21T10:06:35.153Z,45.38
2022-10-21T10:09:13.502Z,45.91
2022-10-21T10:11:55.296Z,46.81
2022-10-21T10:14:31.741Z,46.86
2022-10-21T10:17:22.631Z,46.13
2022-10-21T10:20:06.574Z,47.36
2022-10-21T10:22:59.332Z,48.00
2022-10-21T10:25:35.027Z,49.07
2022-10-21T10:28:20.601Z,48.77
2022-10-21T10:30:55.172Z,48.30
2022-10-21T10:33:31.906Z,48.22
2022-10-21T10:36:05.531Z,48.24
2022-10-21T10:38:39.405Z,48.85
2022-10-21T10:41:15.004Z,48.72
2022-10-21T10:43:58.634Z,48.21
2022-10-21T10:46:36.345Z,48.56
2022-10-21T10:49:13.585Z,49.82
2022-10-21T10:51:43.026Z,49.25
2022-10-21T10:54:20.611Z,50.55
2022-10-21T10:57:01.293Z,50.02
2022-10-21T11:00:13.949Z,49.51
2022-10-21T11:02:52.530Z,48.19
2022-10-21T11:05:37.453Z,47.02
2022-10-21T11:08:11.595Z,45.99
2022-10-21T11:10:56.920Z,45.78
2022-10-21T11:13:25.654Z,45.12
2022-10-21T11:16:26.109Z,45.28
2022-10-21T11:19:20.230Z,44.47
2022-10-21T11:22:11.267Z,44.59
2022-10-21T11:25:09.062Z,43.79
2022-10-21T11:27:52.831Z,44.15
2022-10-21T11:30:33.612Z,44.02
2022-10-21T11:33:10.597Z,42.88
2022-10-21T11:36:16.435Z,41.78
2022-10-21T11:39:04.019Z,42.31
2022-10-21T11:41:46.131Z,41.97
2022-10-21T11:44:14.398Z,41.55
2022-10-21T11:47:11.965Z,39.87
2022-10-21T11:49:59.483Z,40.41
2022-10-21T11:52:54.916Z,39.21
2022-10-21T11:55:53.876Z,40.09
2022-10-21T11:58:54.233Z,39.20
2022-10-21T12:02:00.052Z,38.65
2022-10-21T12:05:09.219Z,37.82
2022-10-21T12:07:52.374Z,39.36
2022-10-21T12:10:33.478Z,39.32
2022-10-21T12:13:25.961Z,38.62
2022-10-21T12:16:01.012Z,38.27
2022-10-21T12:18:31.270Z,39.41
2022-10-21T12:21:03.240Z,38.72
2022-10-21T12:23:34.828Z,38.21
2022-10-21T12:26:33.364Z,36.83
2022-10-21T12:29:18.402Z,36.08
2022-10-21T12:32:07.683Z,37.64
2022-10-21T12:34:52.646Z,38.16
2022-10-21T12:37:52.716Z,38.10
2022-10-21T12:40:33.311Z,37.97
2022-10-21T12:43:26.376Z,38.69
2022-10-21T12:46:23.056Z,39.77
2022-10-21T12:48:58.185Z,39.46
2022-10-21T12:51:39.783Z,39.34
2022-10-21T12:54:28.089Z,39.38
2022-10-21T12:57:32.911Z,39.49
2022-10-21T13:00:30.630Z,40.81
2022-10-21T13:03:41.965Z,40.43
2022-10-21T13:07:02.962Z,40.17
2022-10-21T13:10:10.613Z,39.88
2022-10-21T13:13:13.557Z,38.65
2022-10-21T13:18:53.802Z,39.79
2022-10-21T13:21:43.122Z,38.70
2022-10-21T13:24:46.263Z,39.91
2022-10-21T13:27:42.714Z,39.46
2022-10-21T13:30:57.408Z,39.05
2022-10-21T13:33:53.862Z,38.88
2022-10-21T13:36:40.203Z,39.34
2022-10-21T13:39:26.690Z,38.80
2022-10-21T13:42:50.280Z,39.93
2022-10-21T13:45:38.351Z,38.79
2022-10-21T13:48:30.704Z,37.95
2022-10-21T13:51:21.667Z,38.34
2022-10-21T13:53:53.629Z,38.23
2022-10-21T13:56:30.904Z,39.21
2022-10-21T13:59:21.045Z,40.02
2022-10-21T14:02:00.485Z,40.59
2022-10-21T14:07:31.326Z,40.60
2022-10-21T14:10:02.799Z,40.65
2022-10-21T14:12:37.434Z,41.61
2022-10-21T14:15:44.087Z,41.79
2022-10-21T14:18:32.260Z,42.84
2022-10-21T14:21:28.508Z,42.66
2022-10-21T14:24:06.213Z,43.76
2022-10-21T14:26:36.811Z,44.24
2022-10-21T14:29:06.621Z,44.33
2022-10-21T14:31:35.527Z,44.55
2022-10-21T14:34:15.121Z,44.83
2022-10-21T14:37:14.982Z,44.68
2022-10-21T14:39:44.759Z,44.84
2022-10-21T14:42:21.692Z,45.21
2022-10-21T14:45:14.189Z,45.36
2022-10-21T14:47:42.984Z,45.76
2022-10-21T14:50:23.848Z,47.82
2022-10-21T14:52:54.782Z,46.79
2022-10-21T14:55:39.773Z,46.96
2022-10-21T14:58:14.981Z,46.59
2022-10-21T15:00:46.543Z,45.07
2022-10-21T15:03:38.332Z,44.92
2022-10-21T15:06:28.464Z,43.83
2022-10-21T15:09:05.557Z,44.06
2022-10-21T15:11:46.319Z,42.05
2022-10-21T15:14:32.570Z,41.99
2022-10-21T15:26:03.087Z,43.10
2022-10-21T15:28:39.314Z,42.84
2022-10-21T15:41:13.189Z,40.85
2022-10-21T15:44:31.802Z,41.67
2022-10-21T15:47:12.149Z,41.04
2022-10-21T15:49:57.066Z,41.08
2022-10-21T15:52:32.623Z,41.46
2022-10-21T15:55:04.617Z,42.24
2022-10-21T15:57:32.545Z,42.44
2022-10-21T16:00:03.935Z,42.31
2022-10-21T16:02:32.210Z,42.96
2022-10-21T16:05:00.103Z,42.02
2022-10-21T16:07:33.219Z,42.74
2022-10-21T16:10:01.561Z,42.80
2022-10-21T16:12:32.091Z,41.90
2022-10-21T16:21:45.407Z,42.34
2022-10-21T16:24:59.201Z,42.25
2022-10-21T16:27:55.203Z,42.00
2022-10-21T16:30:40.809Z,42.26
2022-10-21T16:33:12.038Z,41.77
2022-10-21T16:36:03.109Z,42.26
2022-10-21T16:38:51.356Z,42.19
2022-10-21T16:41:38.010Z,42.58
2022-10-21T16:44:21.464Z,41.84
2022-10-21T16:47:20.411Z,41.39
2022-10-21T16:50:01.313Z,41.04
2022-10-21T16:52:39.901Z,42.17
2022-10-21T16:55:22.340Z,42.74
2022-10-21T16:58:12.481Z,42.88
2022-10-21T17:00:53.555Z,44.09
2022-10-21T17:03:42.799Z,43.46
2022-10-21T17:06:28.666Z,43.50
2022-10-21T17:09:20.272Z,43.41
2022-10-21T17:12:09.092Z,44.31
2022-10-21T17:15:02.964Z,45.47
2022-10-21T17:17:47.875Z,45.13
2022-10-21T17:20:33.161Z,45.65
2022-10-21T17:23:24.105Z,45.43
2022-10-21T17:26:08.258Z,44.88
2022-10-21T17:28:55.628Z,45.28
2022-10-21T17:31:41.013Z,44.94
2022-10-21T17:34:39.347Z,45.42
2022-10-21T17:37:26.710Z,44.85
2022-10-21T17:40:25.458Z,45.44
2022-10-21T17:43:08.933Z,45.17
2022-10-21T17:45:45.816Z,45.61
2022-10-21T17:48:26.177Z,46.05
2022-10-21T17:51:33.652Z,47.36
2022-10-21T17:54:27.949Z,46.76
2022-10-21T17:57:36.710Z,46.84
2022-10-21T18:00:31.072Z,46.17
2022-10-21T18:03:18.873Z,46.47
2022-10-21T18:06:19.245Z,47.48
2022-10-21T18:09:00.646Z,46.73
2022-10-21T18:11:52.430Z,47.94
2022-10-21T18:14:37.665Z,48.55
2022-10-21T18:17:22.838Z,49.08
2022-10-21T18:20:01.872Z,51.15
2022-10-21T18:22:44.416Z,51.55
2022-10-21T18:25:21.384Z,50.39
2022-10-21T18:27:57.971Z,50.29
2022-10-21T18:30:44.235Z,49.17
2022-10-21T18:33:21.206Z,48.83
2022-10-21T18:35:56.189Z,48.82
2022-10-21T18:38:44.613Z,49.34
2022-10-21T18:41:29.523Z,48.70
2022-10-21T18:44:09.518Z,49.25
2022-10-21T18:46:58.677Z,49.11
2022-10-21T18:49:46.595Z,49.77
2022-10-21T18:52:42.279Z,49.37
2022-10-21T18:55:11.065Z,49.04
2022-10-21T18:57:51.724Z,48.63
2022-10-21T19:00:22.337Z,48.83
2022-10-21T19:02:56.774Z,49.04
2022-10-21T19:05:30.273Z,50.03
2022-10-21T19:08:01.432Z,50.58
2022-10-21T19:10:32.010Z,50.10
2022-10-21T19:13:01.036Z,49.58
2022-10-21T19:15:38.572Z,49.03
2022-10-21T19:18:15.410Z,49.36
2022-10-21T19:20:46.805Z,48.40
2022-10-21T19:23:16.143Z,49.01
2022-10-21T19:25:46.327Z,49.61
2022-10-21T19:28:14.042Z,49.68
2022-10-21T19:30:43.702Z,50.71
2022-10-21T19:33:11.582Z,49.68
2022-10-21T19:35:42.014Z,49.36
2022-10-21T19:38:26.166Z,51.45
2022-10-21T19:41:01.031Z,52.82
2022-10-21T19:43:29.295Z,52.42
2022-10-21T19:46:01.412Z,53.53
2022-10-21T19:48:32.408Z,53.69
2022-10-21T19:51:00.476Z,52.84
2022-10-21T19:53:29.313Z,52.17
2022-10-21T19:55:57.385Z,53.59
2022-10-21T19:58:25.047Z,52.68
2022-10-21T20:01:02.001Z,54.08
2022-10-21T20:03:29.902Z,53.16
2022-10-21T20:05:58.076Z,53.15
2022-10-21T20:11:06.656Z,52.27
2022-10-21T20:13:34.986Z,53.17
2022-10-21T20:16:03.415Z,52.59
2022-10-21T20:18:31.745Z,52.10
2022-10-21T20:21:00.738Z,51.71
2022-10-21T20:23:28.845Z,51.18
2022-10-21T20:25:58.866Z,50.89
2022-10-21T20:28:28.478Z,50.77
2022-10-21T20:31:01.373Z,49.53
2022-10-21T20:33:31.682Z,49.71
2022-10-21T20:36:04.469Z,49.47
2022-10-21T20:38:32.596Z,49.60
2022-10-21T20:41:10.029Z,49.24
2022-10-21T20:43:40.461Z,48.63
2022-10-21T20:46:10.911Z,48.49
2022-10-21T20:48:46.692Z,48.19
2022-10-21T20:51:18.397Z,47.78
2022-10-21T20:53:52.513Z,47.37
2022-10-21T20:56:23.420Z,47.38
2022-10-21T20:58:56.280Z,47.39
2022-10-21T21:01:32.162Z,47.21
2022-10-21T21:04:10.780Z,46.92
2022-10-21T21:06:41.636Z,47.32
2022-10-21T21:12:04.868Z,47.29
2022-10-21T21:14:33.600Z,47.09
2022-10-21T21:17:03.373Z,47.28
2022-10-21T21:19:45.156Z,47.05
2022-10-21T21:22:13.525Z,47.40
2022-10-21T21:24:45.481Z,47.23
2022-10-21T21:27:16.770Z,47.53
2022-10-21T21:29:47.225Z,47.57
2022-10-21T21:32:14.853Z,47.72
2022-10-21T21:34:42.462Z,47.56
2022-10-21T21:37:10.606Z,47.68
2022-10-21T21:39:38.094Z,47.67
2022-10-21T21:42:08.390Z,47.83
2022-10-21T21:44:37.434Z,47.66
2022-10-21T21:47:04.796Z,47.84
2022-10-21T21:49:32.373Z,47.62
2022-10-21T21:52:00.109Z,47.64
2022-10-21T21:54:30.977Z,48.09
2022-10-21T21:57:23.195Z,47.90
2022-10-21T21:59:48.612Z,48.38
2022-10-21T22:02:16.137Z,48.44
2022-10-21T22:04:43.860Z,48.52
2022-10-21T22:07:11.257Z,48.91
2022-10-21T22:09:38.705Z,48.86
2022-10-21T22:12:06.717Z,48.51
2022-10-21T22:14:34.650Z,48.93
2022-10-21T22:17:02.212Z,48.97
2022-10-21T22:19:29.883Z,49.53
2022-10-21T22:21:59.034Z,49.59
2022-10-21T22:24:26.711Z,49.35
2022-10-21T22:26:54.517Z,49.62
2022-10-21T22:29:22.498Z,49.55
2022-10-21T22:31:50.919Z,49.54
2022-10-21T22:34:18.686Z,49.62
2022-10-21T22:36:46.487Z,49.95
2022-10-21T22:39:14.153Z,50.11
2022-10-21T22:41:41.850Z,49.97
2022-10-21T22:44:09.522Z,49.81
2022-10-21T22:46:37.185Z,49.90
2022-10-21T22:49:06.447Z,50.07
2022-10-21T22:51:34.944Z,49.79
2022-10-21T22:54:03.097Z,50.13
2022-10-21T22:56:31.311Z,50.35
2022-10-21T22:58:59.495Z,50.19
2022-10-21T23:01:31.571Z,50.15
2022-10-21T23:04:03.111Z,50.27
2022-10-21T23:06:35.200Z,50.24
2022-10-21T23:09:04.886Z,50.43
2022-10-21T23:11:33.620Z,50.34
2022-10-21T23:14:03.668Z,50.31
2022-10-21T23:16:40.049Z,50.37
2022-10-21T23:19:08.598Z,50.46
2022-10-21T23:21:37.614Z,50.51
2022-10-21T23:24:06.724Z,50.70
2022-10-21T23:26:36.230Z,50.71
2022-10-21T23:29:06.403Z,50.64
2022-10-21T23:31:34.533Z,50.69
2022-10-21T23:34:03.256Z,50.59
2022-10-21T23:36:31.190Z,51.08
2022-10-21T23:38:58.909Z,51.03
2022-10-21T23:41:29.420Z,50.99
2022-10-21T23:43:57.424Z,51.38
2022-10-21T23:46:25.007Z,51.80
2022-10-21T23:48:54.818Z,51.46
2022-10-21T23:51:22.878Z,51.63
2022-10-21T23:53:50.620Z,51.32
2022-10-21T23:56:18.211Z,51.67
2022-10-21T23:58:45.871Z,51.58
